createdAt,value
2022-11-04T00:02:00.234Z,1.17
2022-11-04T00:04:29.835Z,1.37
2022-11-04T00:06:59.576Z,1.00
2022-11-04T00:09:29.526Z,1.00
2022-11-04T00:12:15.527Z,1.10
2022-11-04T00:14:44.081Z,1.10
2022-11-04T00:17:22.859Z,1.10
2022-11-04T00:20:10.232Z,1.37
2022-11-04T00:22:57.824Z,1.40
2022-11-04T00:25:43.375Z,1.00
2022-11-04T00:28:30.709Z,1.50
2022-11-04T00:31:20.173Z,1.20
2022-11-04T00:33:47.534Z,1.40
2022-11-04T00:36:15.913Z,1.20
2022-11-04T00:38:45.655Z,1.40
2022-11-04T00:41:27.719Z,1.37
2022-11-04T00:43:57.695Z,1.33
2022-11-04T00:46:25.992Z,1.20
2022-11-04T00:48:53.986Z,1.40
2022-11-04T00:51:22.506Z,1.23
2022-11-04T00:53:52.580Z,1.20
2022-11-04T00:56:20.658Z,1.20
2022-11-04T00:58:50.290Z,1.53
2022-11-04T01:01:20.165Z,1.40
2022-11-04T01:03:50.379Z,1.53
2022-11-04T01:06:19.314Z,1.40
2022-11-04T01:08:47.823Z,1.87
2022-11-04T01:11:17.544Z,1.90
2022-11-04T01:13:45.486Z,1.83
2022-11-04T01:16:13.930Z,2.10
2022-11-04T01:18:42.384Z,2.20
2022-11-04T01:21:13.204Z,2.17
2022-11-04T01:23:42.989Z,2.80
2022-11-04T01:26:13.632Z,2.57
2022-11-04T01:28:43.210Z,2.90
2022-11-04T01:31:13.128Z,3.40
2022-11-04T01:33:41.623Z,3.07
2022-11-04T01:36:10.693Z,3.30
2022-11-04T01:38:38.966Z,3.63
2022-11-04T01:41:08.209Z,2.80
2022-11-04T01:43:51.646Z,3.00
2022-11-04T01:46:27.620Z,2.70
2022-11-04T01:49:00.949Z,2.50
2022-11-04T01:51:31.213Z,2.80
2022-11-04T01:53:59.282Z,2.70
2022-11-04T01:56:27.838Z,3.67
2022-11-04T01:59:03.451Z,3.17
2022-11-04T02:01:31.947Z,3.30
2022-11-04T02:04:22.095Z,3.50
2022-11-04T02:06:52.098Z,3.37
2022-11-04T02:09:21.253Z,3.67
2022-11-04T02:12:06.640Z,3.20
2022-11-04T02:14:37.252Z,3.20
2022-11-04T02:17:21.358Z,3.40
2022-11-04T02:20:02.573Z,2.83
2022-11-04T02:22:50.157Z,2.97
2022-11-04T02:25:53.693Z,3.40
2022-11-04T02:28:41.390Z,3.03
2022-11-04T02:31:17.690Z,2.30
2022-11-04T02:33:54.028Z,2.63
2022-11-04T02:36:31.964Z,2.70
2022-11-04T02:39:09.222Z,2.47
2022-11-04T02:41:50.638Z,2.93
2022-11-04T02:44:23.193Z,3.10
2022-11-04T02:47:00.234Z,3.23
2022-11-04T02:49:34.456Z,3.43
2022-11-04T02:52:06.518Z,2.97
2022-11-04T02:54:39.814Z,2.40
2022-11-04T02:57:10.086Z,2.63
2022-11-04T02:59:42.873Z,3.03
2022-11-04T03:02:17.235Z,2.27
2022-11-04T03:04:50.627Z,2.10
2022-11-04T03:07:25.446Z,2.03
2022-11-04T03:09:57.291Z,2.43
2022-11-04T03:12:31.476Z,2.40
2022-11-04T03:15:05.800Z,2.03
2022-11-04T03:17:43.058Z,2.33
2022-11-04T03:20:17.703Z,3.10
2022-11-04T03:22:45.855Z,2.57
2022-11-04T03:25:14.214Z,2.93
2022-11-04T03:27:49.040Z,2.80
2022-11-04T03:30:19.783Z,2.87
2022-11-04T03:32:58.046Z,2.97
2022-11-04T03:35:26.807Z,2.77
2022-11-04T03:37:55.066Z,2.33
2022-11-04T03:40:23.711Z,2.50
2022-11-04T03:42:58.674Z,3.20
2022-11-04T03:45:27.160Z,3.50
2022-11-04T03:47:58.475Z,2.90
2022-11-04T03:50:29.010Z,3.47
2022-11-04T03:52:57.931Z,2.97
2022-11-04T03:55:36.717Z,3.00
2022-11-04T03:58:08.457Z,2.80
2022-11-04T04:00:43.224Z,2.70
2022-11-04T04:03:19.356Z,2.87
2022-11-04T04:05:54.352Z,2.30
2022-11-04T04:08:35.040Z,2.37
2022-11-04T04:11:11.117Z,2.37
2022-11-04T04:13:45.154Z,2.20
2022-11-04T04:16:23.247Z,1.93
2022-11-04T04:18:58.883Z,2.13
2022-11-04T04:21:32.083Z,1.90
2022-11-04T04:24:21.759Z,2.00
2022-11-04T04:27:09.140Z,2.30
2022-11-04T04:29:38.758Z,2.30
2022-11-04T04:32:08.085Z,2.17
2022-11-04T04:34:38.690Z,2.33
2022-11-04T04:37:09.175Z,2.40
2022-11-04T04:40:00.754Z,2.30
2022-11-04T04:42:50.465Z,2.07
2022-11-04T04:45:23.469Z,1.97
2022-11-04T04:47:52.579Z,1.80
2022-11-04T04:50:23.170Z,1.70
2022-11-04T04:52:54.404Z,1.70
2022-11-04T04:55:22.484Z,1.90
2022-11-04T04:57:50.406Z,1.37
2022-11-04T05:00:20.520Z,1.67
2022-11-04T05:02:49.869Z,2.03
2022-11-04T05:05:18.946Z,1.50
2022-11-04T05:07:48.431Z,1.80
2022-11-04T05:10:17.695Z,1.70
2022-11-04T05:13:03.667Z,1.20
2022-11-04T05:15:32.503Z,1.17
2022-11-04T05:18:03.088Z,1.60
2022-11-04T05:20:34.314Z,1.40
2022-11-04T05:23:03.838Z,2.00
2022-11-04T05:25:31.733Z,1.50
2022-11-04T05:28:01.316Z,1.70
2022-11-04T05:30:29.454Z,1.40
2022-11-04T05:33:00.130Z,1.80
2022-11-04T05:35:31.637Z,1.57
2022-11-04T05:37:59.577Z,1.90
2022-11-04T05:40:30.302Z,1.67
2022-11-04T05:42:59.861Z,1.60
2022-11-04T05:45:28.094Z,1.57
2022-11-04T05:48:00.511Z,1.90
2022-11-04T05:50:29.115Z,1.83
2022-11-04T05:52:58.521Z,1.90
2022-11-04T05:55:26.780Z,2.30
2022-11-04T05:57:58.092Z,2.03
2022-11-04T06:00:26.794Z,1.70
2022-11-04T06:02:57.277Z,2.10
2022-11-04T06:05:25.431Z,1.70
2022-11-04T06:07:53.511Z,2.00
2022-11-04T06:10:21.703Z,1.87
2022-11-04T06:12:49.634Z,2.03
2022-11-04T06:15:19.413Z,1.70
2022-11-04T06:17:47.337Z,1.97
2022-11-04T06:20:15.327Z,1.80
2022-11-04T06:22:43.287Z,2.03
2022-11-04T06:25:11.472Z,1.70
2022-11-04T06:27:39.373Z,1.73
2022-11-04T06:30:08.560Z,1.43
2022-11-04T06:32:37.983Z,1.63
2022-11-04T06:35:09.032Z,1.60
2022-11-04T06:37:37.874Z,1.80
2022-11-04T06:40:07.309Z,2.10
2022-11-04T06:42:35.227Z,2.07
2022-11-04T06:45:03.107Z,2.33
2022-11-04T06:47:31.302Z,2.23
2022-11-04T06:50:00.746Z,2.53
2022-11-04T06:52:28.739Z,2.37
2022-11-04T06:54:56.678Z,2.53
2022-11-04T06:57:24.518Z,2.30
2022-11-04T06:59:52.522Z,2.30
2022-11-04T07:02:20.574Z,1.87
2022-11-04T07:04:48.534Z,1.53
2022-11-04T07:07:17.902Z,1.87
2022-11-04T07:09:45.808Z,2.30
2022-11-04T07:12:13.984Z,2.37
2022-11-04T07:14:42.057Z,1.63
2022-11-04T07:17:10.030Z,1.73
2022-11-04T07:19:37.999Z,1.90
2022-11-04T07:22:06.040Z,2.63
2022-11-04T07:24:35.474Z,2.43
2022-11-04T07:27:03.412Z,2.10
2022-11-04T07:29:31.438Z,1.93
2022-11-04T07:31:59.397Z,1.93
2022-11-04T07:34:28.713Z,1.67
2022-11-04T07:36:56.821Z,2.03
2022-11-04T07:39:24.800Z,2.10
2022-11-04T07:41:59.175Z,1.77
2022-11-04T07:44:27.733Z,2.13
2022-11-04T07:46:55.859Z,2.07
2022-11-04T07:49:25.382Z,1.63
2022-11-04T07:51:53.866Z,1.77
2022-11-04T07:54:21.896Z,1.73
2022-11-04T07:56:49.877Z,1.50
2022-11-04T07:59:19.348Z,2.00
2022-11-04T08:01:47.448Z,1.70
2022-11-04T08:04:15.537Z,1.80
2022-11-04T08:06:43.827Z,1.73
2022-11-04T08:09:11.925Z,2.03
2022-11-04T08:11:40.127Z,1.60
2022-11-04T08:14:08.062Z,1.43
2022-11-04T08:16:37.547Z,1.47
2022-11-04T08:19:06.051Z,1.43
2022-11-04T08:21:35.393Z,1.67
2022-11-04T08:24:05.371Z,1.50
2022-11-04T08:26:33.298Z,1.50
2022-11-04T08:29:02.628Z,1.60
2022-11-04T08:31:33.880Z,1.70
2022-11-04T08:34:03.416Z,1.90
2022-11-04T08:36:34.490Z,1.57
2022-11-04T08:39:10.296Z,1.70
2022-11-04T08:41:41.248Z,1.60
2022-11-04T08:44:10.519Z,1.67
2022-11-04T08:46:40.935Z,2.03
2022-11-04T08:49:17.746Z,2.00
2022-11-04T08:51:54.417Z,2.40
2022-11-04T08:54:22.501Z,1.90
2022-11-04T08:56:50.899Z,2.00
2022-11-04T08:59:19.067Z,1.50
2022-11-04T09:01:47.354Z,2.20
2022-11-04T09:07:51.550Z,2.10
2022-11-04T09:10:20.113Z,2.10
2022-11-04T09:12:48.077Z,1.80
2022-11-04T09:15:16.514Z,2.10
2022-11-04T09:17:56.276Z,2.33
2022-11-04T09:20:27.834Z,1.70
2022-11-04T09:22:59.075Z,1.80
2022-11-04T09:25:27.450Z,1.87
2022-11-04T09:27:55.622Z,1.80
2022-11-04T09:30:36.758Z,2.20
2022-11-04T09:33:07.906Z,1.73
2022-11-04T09:36:13.138Z,2.30
2022-11-04T09:38:43.914Z,2.00
2022-11-04T09:41:44.519Z,2.10
2022-11-04T09:44:23.148Z,2.10
2022-11-04T09:46:54.773Z,1.80
2022-11-04T09:49:23.627Z,1.70
2022-11-04T09:51:55.445Z,1.80
2022-11-04T09:54:28.185Z,1.80
2022-11-04T09:56:59.232Z,1.70
2022-11-04T09:59:30.859Z,1.80
2022-11-04T10:02:22.307Z,2.03
2022-11-04T10:05:04.917Z,1.83
2022-11-04T10:07:46.616Z,2.00
2022-11-04T10:10:23.208Z,2.20
2022-11-04T10:13:12.607Z,1.80
2022-11-04T10:15:56.539Z,2.30
2022-11-04T10:18:45.030Z,1.73
2022-11-04T10:21:22.781Z,2.07
2022-11-04T10:24:06.573Z,1.93
2022-11-04T10:26:44.459Z,1.80
2022-11-04T10:29:17.062Z,2.17
2022-11-04T10:31:48.375Z,1.70
2022-11-04T10:34:27.961Z,1.83
2022-11-04T10:36:58.169Z,1.50
2022-11-04T10:39:30.965Z,1.70
2022-11-04T10:42:00.333Z,1.63
2022-11-04T10:44:33.997Z,1.50
2022-11-04T10:47:12.914Z,1.70
2022-11-04T10:57:22.005Z,1.77
2022-11-04T10:59:55.652Z,2.30
2022-11-04T11:02:47.332Z,2.10
2022-11-04T11:05:26.439Z,2.40
2022-11-04T11:07:56.328Z,2.27
2022-11-04T11:10:26.360Z,2.93
2022-11-04T11:12:59.190Z,3.07
2022-11-04T11:15:33.260Z,3.03
2022-11-04T11:18:15.998Z,2.90
2022-11-04T11:20:49.096Z,2.73
2022-11-04T11:23:36.984Z,2.27
2022-11-04T11:26:07.304Z,2.30
2022-11-04T11:28:40.564Z,1.90
2022-11-04T11:31:18.784Z,2.63
2022-11-04T11:33:54.109Z,2.77
2022-11-04T11:36:26.470Z,3.00
2022-11-04T11:39:06.968Z,2.80
2022-11-04T11:41:42.493Z,3.03
2022-11-04T11:44:28.740Z,3.17
2022-11-04T11:46:58.769Z,2.97
2022-11-04T11:49:30.451Z,3.10
2022-11-04T11:52:23.490Z,3.60
2022-11-04T11:54:56.869Z,3.20
2022-11-04T11:57:36.868Z,4.30
2022-11-04T12:03:07.783Z,3.43
2022-11-04T12:11:57.243Z,3.60
2022-11-04T12:14:36.590Z,3.27
2022-11-04T12:17:17.299Z,3.30
2022-11-04T12:20:04.031Z,3.23
2022-11-04T12:22:41.488Z,3.97
2022-11-04T12:25:21.592Z,3.77
2022-11-04T12:28:00.253Z,3.50
2022-11-04T12:30:38.165Z,2.63
2022-11-04T12:33:19.427Z,3.40
2022-11-04T12:36:04.350Z,4.37
2022-11-04T12:38:56.891Z,3.23
2022-11-04T12:42:06.280Z,4.37
2022-11-04T12:44:32.329Z,3.00
2022-11-04T12:47:14.084Z,3.47
2022-11-04T12:50:08.268Z,3.37
2022-11-04T12:52:51.842Z,3.63
2022-11-04T12:55:42.516Z,3.63
2022-11-04T12:58:25.860Z,3.43
2022-11-04T13:00:59.933Z,3.33
2022-11-04T13:03:33.831Z,2.80
2022-11-04T13:06:07.371Z,3.30
2022-11-04T13:08:44.648Z,3.00
2022-11-04T13:11:25.161Z,3.13
2022-11-04T13:14:02.364Z,2.93
2022-11-04T13:16:32.997Z,2.40
2022-11-04T13:19:02.061Z,3.10
2022-11-04T13:21:37.125Z,2.70
2022-11-04T13:24:09.495Z,2.30
2022-11-04T13:26:37.593Z,2.40
2022-11-04T13:29:09.320Z,2.73
2022-11-04T13:31:48.171Z,2.33
2022-11-04T13:34:34.121Z,2.40
2022-11-04T13:37:11.705Z,2.30
2022-11-04T13:39:46.075Z,2.07
2022-11-04T13:42:53.359Z,2.17
2022-11-04T13:45:22.401Z,2.13
2022-11-04T13:47:54.561Z,2.40
2022-11-04T13:50:33.195Z,2.60
2022-11-04T13:53:04.032Z,2.30
2022-11-04T13:55:32.231Z,2.47
2022-11-04T13:58:02.739Z,2.30
2022-11-04T14:00:31.994Z,2.20
2022-11-04T14:03:01.936Z,2.50
2022-11-04T14:06:08.503Z,2.47
2022-11-04T14:08:58.116Z,2.40
2022-11-04T14:11:26.584Z,2.73
2022-11-04T14:14:15.132Z,2.50
2022-11-04T14:16:47.243Z,2.23
2022-11-04T14:19:48.912Z,2.30
2022-11-04T14:22:19.007Z,2.60
2022-11-04T14:24:56.206Z,2.80
2022-11-04T14:27:27.705Z,2.60
2022-11-04T14:29:55.965Z,2.90
2022-11-04T14:32:28.553Z,2.40
2022-11-04T14:35:03.615Z,2.60
2022-11-04T14:37:34.908Z,2.57
2022-11-04T14:40:07.495Z,2.17
2022-11-04T14:42:51.495Z,2.10
2022-11-04T14:45:22.676Z,1.90
2022-11-04T14:47:55.776Z,2.33
2022-11-04T14:50:27.288Z,2.30
2022-11-04T14:52:58.921Z,2.70
2022-11-04T14:55:30.196Z,2.70
2022-11-04T14:58:01.366Z,2.70
2022-11-04T15:00:35.483Z,2.53
2022-11-04T15:06:05.625Z,3.13
2022-11-04T15:08:36.174Z,3.07
2022-11-04T15:11:15.527Z,3.80
2022-11-04T15:13:48.615Z,3.37
2022-11-04T15:16:20.114Z,3.80
2022-11-04T15:18:48.512Z,3.03
2022-11-04T15:21:17.132Z,3.43
2022-11-04T15:23:48.338Z,3.33
2022-11-04T15:26:29.121Z,3.17
2022-11-04T15:29:00.334Z,3.00
2022-11-04T15:31:30.822Z,3.13
2022-11-04T15:34:01.582Z,3.07
2022-11-04T15:36:34.290Z,3.20
2022-11-04T15:39:06.762Z,2.60
2022-11-04T15:41:57.540Z,3.23
2022-11-04T15:44:27.849Z,3.13
2022-11-04T15:46:58.843Z,3.40
2022-11-04T15:49:28.405Z,3.03
2022-11-04T15:52:00.900Z,3.03
2022-11-04T15:54:31.759Z,3.10
2022-11-04T15:57:04.749Z,3.73
2022-11-04T15:59:35.838Z,3.63
2022-11-04T16:02:06.461Z,3.60
2022-11-04T16:04:34.910Z,3.70
2022-11-04T16:07:20.519Z,3.27
2022-11-04T16:09:50.360Z,4.00
2022-11-04T16:12:28.097Z,4.93
2022-11-04T16:14:57.596Z,4.43
2022-11-04T16:17:27.204Z,4.27
2022-11-04T16:19:57.345Z,4.90
2022-11-04T16:22:30.266Z,5.20
2022-11-04T16:25:00.570Z,5.20
2022-11-04T16:27:33.337Z,5.40
2022-11-04T16:30:10.898Z,5.57
2022-11-04T16:32:44.747Z,5.57
2022-11-04T16:35:18.498Z,6.17
2022-11-04T16:37:46.989Z,5.80
2022-11-04T16:40:15.966Z,5.07
2022-11-04T16:42:46.048Z,6.00
2022-11-04T16:45:24.770Z,5.70
2022-11-04T16:47:53.387Z,5.23
2022-11-04T16:50:21.989Z,5.60
2022-11-04T16:52:49.927Z,6.13
2022-11-04T16:55:19.162Z,5.60
2022-11-04T16:57:50.507Z,6.30
2022-11-04T17:00:22.613Z,6.17
2022-11-04T17:02:51.420Z,6.10
2022-11-04T17:05:20.033Z,6.33
2022-11-04T17:07:54.630Z,6.97
2022-11-04T17:10:28.113Z,7.27
2022-11-04T17:12:57.558Z,9.80
2022-11-04T17:15:26.013Z,7.93
2022-11-04T17:17:54.011Z,8.27
2022-11-04T17:20:21.937Z,7.90
2022-11-04T17:22:50.273Z,8.00
2022-11-04T17:25:21.252Z,8.50
2022-11-04T17:27:49.508Z,7.80
2022-11-04T17:30:19.708Z,7.30
2022-11-04T17:32:48.247Z,6.67
2022-11-04T17:35:17.272Z,7.40
2022-11-04T17:37:45.333Z,6.87
2022-11-04T17:40:16.455Z,6.70
2022-11-04T17:43:04.395Z,7.23
2022-11-04T17:45:37.915Z,7.00
2022-11-04T17:48:06.718Z,6.90
2022-11-04T17:50:35.014Z,7.47
2022-11-04T17:53:03.034Z,9.83
2022-11-04T17:55:30.987Z,10.30
2022-11-04T17:57:58.912Z,10.80
2022-11-04T18:00:29.765Z,11.03
2022-11-04T18:02:59.348Z,12.73
2022-11-04T18:05:27.300Z,12.70
2022-11-04T18:07:56.598Z,12.80
2022-11-04T18:10:24.585Z,12.33
2022-11-04T18:12:52.889Z,12.27
2022-11-04T18:15:20.889Z,12.70
2022-11-04T18:17:50.078Z,12.70
2022-11-04T18:20:19.601Z,12.93
2022-11-04T18:22:47.500Z,12.00
2022-11-04T18:25:15.458Z,11.73
2022-11-04T18:27:43.562Z,12.67
2022-11-04T18:30:12.639Z,12.23
2022-11-04T18:32:41.245Z,12.23
2022-11-04T18:35:09.568Z,13.17
2022-11-04T18:37:40.683Z,12.97
2022-11-04T18:40:13.952Z,12.37
2022-11-04T18:42:41.933Z,11.87
2022-11-04T18:45:10.928Z,13.10
2022-11-04T18:47:38.886Z,12.67
2022-11-04T18:50:07.739Z,12.67
2022-11-04T18:52:35.789Z,12.33
2022-11-04T18:55:05.489Z,12.20
2022-11-04T18:57:33.533Z,11.97
2022-11-04T19:00:01.498Z,11.80
2022-11-04T19:02:29.516Z,11.90
2022-11-04T19:04:57.553Z,12.07
2022-11-04T19:07:25.564Z,10.47
2022-11-04T19:09:54.740Z,10.10
2022-11-04T19:12:41.423Z,10.93
2022-11-04T19:15:10.094Z,10.43
2022-11-04T19:17:38.313Z,10.87
2022-11-04T19:20:12.140Z,10.03
2022-11-04T19:22:41.486Z,10.53
2022-11-04T19:25:10.362Z,10.80
2022-11-04T19:27:39.948Z,11.23
2022-11-04T19:30:08.820Z,10.60
2022-11-04T19:32:37.639Z,9.97
2022-11-04T19:35:06.095Z,10.93
2022-11-04T19:37:34.320Z,9.77
2022-11-04T19:40:02.453Z,10.23
2022-11-04T19:42:48.006Z,10.53
2022-11-04T19:45:17.861Z,10.10
2022-11-04T19:47:46.391Z,10.90
2022-11-04T19:50:14.684Z,10.27
2022-11-04T19:52:43.020Z,10.50
2022-11-04T19:55:11.645Z,10.50
2022-11-04T19:57:40.226Z,10.47
2022-11-04T20:00:09.374Z,10.20
2022-11-04T20:02:39.166Z,10.10
2022-11-04T20:05:08.590Z,10.37
2022-11-04T20:07:36.667Z,10.00
2022-11-04T20:10:04.748Z,10.17
2022-11-04T20:12:50.143Z,10.87
2022-11-04T20:15:18.213Z,10.73
2022-11-04T20:17:47.723Z,11.57
2022-11-04T20:20:16.087Z,12.47
2022-11-04T20:22:44.041Z,12.53
2022-11-04T20:25:11.950Z,12.03
2022-11-04T20:27:40.040Z,11.97
2022-11-04T20:30:09.050Z,11.37
2022-11-04T20:32:37.180Z,10.63
2022-11-04T20:35:08.268Z,13.07
2022-11-04T20:37:36.318Z,12.13
2022-11-04T20:40:05.227Z,12.00
2022-11-04T20:42:34.088Z,12.33
2022-11-04T20:45:02.090Z,11.57
2022-11-04T20:47:31.050Z,11.97
2022-11-04T20:49:59.285Z,11.20
2022-11-04T20:52:28.804Z,12.00
2022-11-04T20:54:56.838Z,11.67
2022-11-04T20:57:25.190Z,11.00
2022-11-04T20:59:54.011Z,10.87
2022-11-04T21:02:24.759Z,11.00
2022-11-04T21:04:53.811Z,10.67
2022-11-04T21:07:21.853Z,12.07
2022-11-04T21:09:51.530Z,11.87
2022-11-04T21:12:20.962Z,10.70
2022-11-04T21:14:48.963Z,10.50
2022-11-04T21:17:17.121Z,11.10
2022-11-04T21:19:45.442Z,9.53
2022-11-04T21:22:13.404Z,7.83
2022-11-04T21:24:41.460Z,7.20
2022-11-04T21:27:11.038Z,7.30
2022-11-04T21:29:39.516Z,6.47
2022-11-04T21:32:07.797Z,6.50
2022-11-04T21:34:35.866Z,5.40
2022-11-04T21:37:03.926Z,5.90
2022-11-04T21:39:31.929Z,4.93
2022-11-04T21:42:00.385Z,5.40
2022-11-04T21:44:29.833Z,5.07
2022-11-04T21:46:57.774Z,5.37
2022-11-04T21:49:25.747Z,6.07
2022-11-04T21:51:53.779Z,4.70
2022-11-04T21:54:21.735Z,5.53
2022-11-04T21:56:51.613Z,4.83
2022-11-04T21:59:19.712Z,4.80
2022-11-04T22:01:49.305Z,4.50
2022-11-04T22:04:17.341Z,4.47
2022-11-04T22:06:47.203Z,4.90
2022-11-04T22:09:15.181Z,4.77
2022-11-04T22:11:43.143Z,4.83
2022-11-04T22:14:13.523Z,5.07
2022-11-04T22:16:41.786Z,4.77
2022-11-04T22:19:14.526Z,4.97
2022-11-04T22:21:44.127Z,5.10
2022-11-04T22:24:13.099Z,5.17
2022-11-04T22:26:41.666Z,5.27
2022-11-04T22:29:10.049Z,4.87
2022-11-04T22:31:40.530Z,5.27
2022-11-04T22:34:08.632Z,5.53
2022-11-04T22:36:38.097Z,5.23
2022-11-04T22:39:10.488Z,5.43
2022-11-04T22:41:41.520Z,5.13
2022-11-04T22:44:09.597Z,5.30
2022-11-04T22:46:37.523Z,5.20
2022-11-04T22:49:05.493Z,5.37
2022-11-04T22:51:33.510Z,5.60
2022-11-04T22:54:07.919Z,4.40
2022-11-04T22:56:36.794Z,5.10
2022-11-04T22:59:04.840Z,5.10
2022-11-04T23:01:33.975Z,6.13
2022-11-04T23:04:02.721Z,5.13
2022-11-04T23:06:31.009Z,4.20
2022-11-04T23:09:00.756Z,4.60
2022-11-04T23:11:51.097Z,5.80
2022-11-04T23:14:38.807Z,4.43
2022-11-04T23:17:33.206Z,4.73
2022-11-04T23:20:01.187Z,5.07
2022-11-04T23:22:48.668Z,5.27
2022-11-04T23:25:16.658Z,4.93
2022-11-04T23:28:05.445Z,5.00
2022-11-04T23:30:35.890Z,5.33
2022-11-04T23:33:06.454Z,5.57
2022-11-04T23:35:54.525Z,5.13
2022-11-04T23:38:22.562Z,4.90
2022-11-04T23:41:12.472Z,5.20
2022-11-04T23:43:41.915Z,5.30
2022-11-04T23:46:27.529Z,4.67
2022-11-04T23:49:21.310Z,4.63
2022-11-04T23:52:06.492Z,4.70
2022-11-04T23:54:51.919Z,5.17
2022-11-04T23:57:38.034Z,5.27
